Terminal Aerodrome Forecast
Issued by NWS

Current Version | Previous Version | Text Only | Print | Product List | Glossary On
Versions: 1 2 3 4 5 6 7 8 9 10 11 12 13 14 15 16 17
000
FTUS45 KABQ 281100
TAFGUP
TAF
KGUP 281124Z 2812/2912 VRB05KT P6SM BKN080
     FM282000 05008KT P6SM SCT070 SCT120
      TEMPO 2820/2823 VRB15G30KT 5SM -TSRA BKN060CB
     FM290200 VRB05KT P6SM FEW070 SCT120=

USA.gov is the U.S. government's official web portal to all federal, state and local government web resources and services.